Weather at Ganadería Pedernales Airport

Public forecast

Using degrees Celsius for public forecast. Weather courtesy of forecast.io.

Closest aviation weather report (METAR) to Ganadería Pedernales Airport

Closest report is Guanare Airport, 15.1 nm (27.9 km) SW.

2024/07/20 06:03 (retrieved 48 minutes ago)

SVGU 200603Z AUTO ///01KT NCD ///// Q1017

Closest aviation forecast (TAF) to Ganadería Pedernales Airport

Closest forecast is Camilo Daza International Airport, 190.2 nm (352.3 km) WSW.

2024/07/20 06:00 (retrieved 51 minutes ago)

TAF SKCC 200430Z 2006/2106 17020KT 9999 SCT020 TX35/2019Z TN27/2011Z